LIBR/BDS METAR and TAF weather

Enter ICAO airport designator
Station Type Date Time Source
LIBR METAR 2019/08/21 20:20 UTC NOAA

LIBR 212020Z 30002KT CAVOK 26/22 Q1016


Station Type Date Time Source
LIBR Decoded METAR 2019/08/21 20:20 UTC NOAA

Station name not available
Aug 21, 2019 - 04:20 PM EDT / 2019.08.21 2020 UTC
Wind: from the WNW (300 degrees) at 2 MPH (2 KT):0
Visibility: greater than 7 mile(s):0
Temperature: 78 F (26 C)
Dew Point: 71 F (22 C)
Relative Humidity: 78%
Pressure (altimeter): 30.00 in. Hg (1016 hPa)
ob: LIBR 212020Z 30002KT CAVOK 26/22 Q1016
cycle: 20

Station Type Date Time Source
LIBR TAF 2019/08/21 18:21 UTC NOAA

TAF LIBR 211700Z 2118/2218 VRB05KT CAVOK
BECMG 2200/2202 34012KT
BECMG 2208/2210 04012KT
BECMG 2216/2218 VRB05KT

Example: see airport list